Time;durP1;ratioP1;P1;durP2;ratioP2;P2;SDS_P1;SDS_P2;PMS_P1;PMS_P2;Temp;Humidity;BMP_temperature;BMP_pressure;BME280_temperature;BME280_humidity;BME280_pressure;Samples;Min_cycle;Max_cycle;Signal;HPM_P1;HPM_P2
2021/03/12 00:01:13;;;;;;;1.17;0.80;;;23.40;28.30;;;;;;5051570;28;20194;-54
2021/03/12 00:03:39;;;;;;;1.08;0.82;;;23.40;28.30;;;;;;5050272;28;20205;-51
2021/03/12 00:06:05;;;;;;;1.40;0.83;;;23.40;28.30;;;;;;5051945;28;20208;-54
2021/03/12 00:08:31;;;;;;;1.17;1.08;;;23.40;28.30;;;;;;5050370;28;20631;-53
2021/03/12 00:10:57;;;;;;;1.00;0.90;;;23.40;28.50;;;;;;5050412;28;20225;-51
2021/03/12 00:13:24;;;;;;;1.40;0.95;;;23.30;28.30;;;;;;5050156;28;20223;-52
2021/03/12 00:15:50;;;;;;;3.38;0.90;;;23.30;28.20;;;;;;5051683;28;20213;-55
2021/03/12 00:18:16;;;;;;;2.07;0.97;;;23.40;28.30;;;;;;5050754;28;20222;-56
2021/03/12 00:20:42;;;;;;;1.48;0.80;;;23.40;28.30;;;;;;5050207;28;20713;-56
2021/03/12 00:23:08;;;;;;;0.75;0.73;;;23.30;28.20;;;;;;5058831;23;20205;-44
2021/03/12 00:25:34;;;;;;;1.27;0.80;;;23.30;28.20;;;;;;5020702;28;20210;-48
2021/03/12 00:28:00;;;;;;;1.17;0.80;;;23.40;28.30;;;;;;5017210;28;20673;-50
2021/03/12 00:30:26;;;;;;;1.52;0.95;;;23.40;28.30;;;;;;5028113;28;20237;-50
2021/03/12 00:32:51;;;;;;;2.37;1.07;;;23.30;28.20;;;;;;5035631;28;20247;-45
2021/03/12 00:35:17;;;;;;;1.77;0.70;;;23.40;28.30;;;;;;5031323;28;20245;-49
2021/03/12 00:37:43;;;;;;;2.42;1.27;;;23.30;28.40;;;;;;5035849;28;20308;-49
2021/03/12 00:40:09;;;;;;;0.90;0.88;;;23.40;28.30;;;;;;5036809;28;20225;-45
2021/03/12 00:42:35;;;;;;;0.75;0.75;;;23.30;28.30;;;;;;5034341;28;20224;-53
2021/03/12 00:45:01;;;;;;;1.93;0.83;;;23.30;28.20;;;;;;5036893;28;20205;-47
2021/03/12 00:47:27;;;;;;;2.53;0.80;;;23.40;28.30;;;;;;5029972;28;20207;-47
2021/03/12 00:49:53;;;;;;;1.00;0.90;;;23.30;28.40;;;;;;5031085;28;20230;-47
2021/03/12 00:52:19;;;;;;;0.80;0.80;;;23.30;28.20;;;;;;5030198;28;20206;-47
2021/03/12 00:54:45;;;;;;;1.20;0.90;;;23.30;28.40;;;;;;5036110;28;20206;-46
2021/03/12 00:57:11;;;;;;;2.43;1.20;;;23.30;28.60;;;;;;5035284;28;20222;-45
2021/03/12 00:59:37;;;;;;;1.50;0.90;;;23.30;28.50;;;;;;5030539;28;20229;-46
2021/03/12 01:02:03;;;;;;;1.13;0.80;;;23.30;28.50;;;;;;5030880;28;20199;-46
2021/03/12 01:04:29;;;;;;;1.13;1.03;;;23.30;28.50;;;;;;5033516;28;20612;-48
2021/03/12 01:06:55;;;;;;;1.00;0.90;;;23.40;28.60;;;;;;5041365;28;20220;-53
2021/03/12 01:09:21;;;;;;;0.73;0.73;;;23.30;28.60;;;;;;5032026;28;20237;-45
2021/03/12 01:11:47;;;;;;;1.08;0.77;;;23.30;28.60;;;;;;5030890;28;20240;-49
2021/03/12 01:14:13;;;;;;;2.20;0.80;;;23.30;28.60;;;;;;5044048;28;20198;-46
2021/03/12 01:16:39;;;;;;;0.77;0.77;;;23.30;28.60;;;;;;5033541;28;20228;-49
2021/03/12 01:19:05;;;;;;;2.13;0.80;;;23.30;28.50;;;;;;5044045;28;20230;-46
2021/03/12 01:21:31;;;;;;;0.90;0.80;;;23.30;28.60;;;;;;5031530;28;20218;-44
2021/03/12 01:23:57;;;;;;;2.15;0.80;;;23.30;28.50;;;;;;5038476;28;20752;-49
2021/03/12 01:26:23;;;;;;;1.47;0.80;;;23.30;28.50;;;;;;5035542;28;20210;-50
2021/03/12 01:28:49;;;;;;;0.80;0.70;;;23.30;28.50;;;;;;5055297;28;20230;-45
2021/03/12 01:31:15;;;;;;;0.80;0.80;;;23.30;28.50;;;;;;5043182;28;20243;-51
2021/03/12 01:33:41;;;;;;;1.53;0.80;;;23.30;28.50;;;;;;5034204;28;20203;-45
2021/03/12 01:36:06;;;;;;;1.60;1.50;;;23.30;28.50;;;;;;5036868;28;20210;-48
2021/03/12 01:38:32;;;;;;;0.80;0.80;;;23.30;28.50;;;;;;5036623;28;20230;-47
2021/03/12 01:40:58;;;;;;;1.00;0.80;;;23.30;28.40;;;;;;5040513;28;20202;-44
2021/03/12 01:43:24;;;;;;;1.67;1.00;;;23.30;28.40;;;;;;5039957;28;20615;-46
2021/03/12 01:45:50;;;;;;;1.10;0.77;;;23.30;28.50;;;;;;5037200;28;20200;-45
2021/03/12 01:48:16;;;;;;;1.70;0.90;;;23.30;28.60;;;;;;5034344;28;20260;-44
2021/03/12 01:50:42;;;;;;;1.10;0.80;;;23.30;28.60;;;;;;5033755;28;20563;-46
2021/03/12 01:53:08;;;;;;;1.20;0.77;;;23.30;28.60;;;;;;5034088;28;20202;-45
2021/03/12 01:55:34;;;;;;;0.80;0.80;;;23.30;28.70;;;;;;5034981;28;20205;-52
2021/03/12 01:58:00;;;;;;;1.33;0.73;;;23.30;28.70;;;;;;5037339;28;20232;-46
2021/03/12 02:00:26;;;;;;;2.30;0.90;;;23.30;28.70;;;;;;5038592;28;20580;-45
2021/03/12 02:02:52;;;;;;;1.30;0.77;;;23.30;28.80;;;;;;5033673;28;20651;-47
2021/03/12 02:05:18;;;;;;;1.17;0.93;;;23.30;28.80;;;;;;5048788;28;20197;-45
2021/03/12 02:07:44;;;;;;;1.50;0.80;;;23.30;28.80;;;;;;5036225;28;20210;-45
2021/03/12 02:10:10;;;;;;;1.55;0.85;;;23.30;28.80;;;;;;5027979;28;20231;-47
2021/03/12 02:12:36;;;;;;;0.77;0.77;;;23.30;28.70;;;;;;5028573;28;20210;-45
2021/03/12 02:15:02;;;;;;;1.53;1.07;;;23.30;28.70;;;;;;5033738;28;20206;-46
2021/03/12 02:17:28;;;;;;;0.70;0.70;;;23.30;28.60;;;;;;5032754;28;20221;-50
2021/03/12 02:19:54;;;;;;;1.07;0.70;;;23.30;28.60;;;;;;5038726;28;20708;-50
2021/03/12 02:22:21;;;;;;;1.33;0.90;;;23.30;28.50;;;;;;5044416;28;20205;-46
2021/03/12 02:24:47;;;;;;;1.20;0.80;;;23.30;28.60;;;;;;5036898;28;20216;-48
2021/03/12 02:27:13;;;;;;;0.75;0.70;;;23.30;28.50;;;;;;5034863;28;20658;-49
2021/03/12 02:29:40;;;;;;;1.05;0.90;;;23.30;28.50;;;;;;5034790;28;20222;-49
2021/03/12 02:32:06;;;;;;;0.90;0.90;;;23.30;28.50;;;;;;5034946;28;20632;-46
2021/03/12 02:34:32;;;;;;;0.70;0.70;;;23.30;28.50;;;;;;5033354;28;20207;-44
2021/03/12 02:36:58;;;;;;;1.73;0.77;;;23.30;28.50;;;;;;5033740;28;20296;-48
2021/03/12 02:39:24;;;;;;;0.67;0.67;;;23.30;28.50;;;;;;5032758;28;20221;-45
2021/03/12 02:41:50;;;;;;;0.70;0.70;;;23.30;28.50;;;;;;5038409;28;20202;-46
2021/03/12 02:44:16;;;;;;;0.98;0.80;;;23.30;28.60;;;;;;5033007;28;20225;-44
2021/03/12 02:46:42;;;;;;;1.08;0.98;;;23.30;28.70;;;;;;5034682;28;20697;-44
2021/03/12 02:49:08;;;;;;;0.63;0.63;;;23.30;28.60;;;;;;5032999;28;20229;-54
2021/03/12 02:51:34;;;;;;;0.90;0.70;;;23.30;28.60;;;;;;5034949;28;20209;-50
2021/03/12 02:54:01;;;;;;;0.67;0.67;;;23.30;28.70;;;;;;5032794;28;20569;-53
2021/03/12 02:56:27;;;;;;;0.80;0.80;;;23.30;28.70;;;;;;5042580;28;20198;-48
2021/03/12 02:58:53;;;;;;;1.80;0.90;;;23.30;28.70;;;;;;5032978;28;20226;-51
2021/03/12 03:01:19;;;;;;;0.73;0.70;;;23.30;28.80;;;;;;5041781;28;20232;-48
2021/03/12 03:03:45;;;;;;;1.47;1.37;;;23.30;28.80;;;;;;5032001;28;20595;-51
2021/03/12 03:06:11;;;;;;;1.00;0.90;;;23.30;28.70;;;;;;5032506;28;20210;-49
2021/03/12 03:08:37;;;;;;;0.70;0.70;;;23.30;28.70;;;;;;5032864;28;20282;-51
2021/03/12 03:11:03;;;;;;;0.73;0.73;;;23.30;28.60;;;;;;5035942;28;20202;-45
2021/03/12 03:13:28;;;;;;;0.90;0.70;;;23.30;28.60;;;;;;5032242;28;20205;-48
2021/03/12 03:15:54;;;;;;;1.17;1.07;;;23.30;28.50;;;;;;5040382;28;20244;-42
2021/03/12 03:18:20;;;;;;;1.07;0.70;;;23.30;28.60;;;;;;5027136;28;20808;-50
2021/03/12 03:20:46;;;;;;;0.77;0.70;;;23.30;28.60;;;;;;5039638;28;20206;-48
2021/03/12 03:23:12;;;;;;;1.63;0.80;;;23.30;28.60;;;;;;5037048;28;20202;-47
2021/03/12 03:25:38;;;;;;;0.70;0.70;;;23.30;28.70;;;;;;5032032;28;20646;-44
2021/03/12 03:28:04;;;;;;;0.77;0.73;;;23.30;28.70;;;;;;5037412;28;20216;-46
2021/03/12 03:30:30;;;;;;;0.80;0.80;;;23.30;28.60;;;;;;5053193;28;20202;-51
2021/03/12 03:32:56;;;;;;;1.20;0.70;;;23.30;28.70;;;;;;5050271;28;20654;-48
2021/03/12 03:35:22;;;;;;;1.00;0.90;;;23.30;28.60;;;;;;5052884;28;20208;-45
2021/03/12 03:37:48;;;;;;;1.47;0.80;;;23.30;28.70;;;;;;5022656;28;20231;-48
2021/03/12 03:40:14;;;;;;;1.07;0.80;;;23.30;28.70;;;;;;5038586;28;20651;-50
2021/03/12 03:42:41;;;;;;;1.13;0.70;;;23.20;28.70;;;;;;5048508;28;20201;-50
2021/03/12 03:45:07;;;;;;;0.60;0.60;;;23.20;28.80;;;;;;5044987;28;20657;-44
2021/03/12 03:47:33;;;;;;;0.90;0.70;;;23.20;29.30;;;;;;5039020;28;20201;-44
2021/03/12 03:49:59;;;;;;;1.73;0.77;;;23.30;28.80;;;;;;5035984;28;20644;-47
2021/03/12 03:52:25;;;;;;;1.40;0.90;;;23.30;28.80;;;;;;5036679;28;20386;-45
2021/03/12 03:54:51;;;;;;;0.90;0.70;;;23.30;28.80;;;;;;5049662;28;20201;-44
2021/03/12 03:57:18;;;;;;;0.70;0.70;;;23.30;28.80;;;;;;5042011;28;20600;-54
2021/03/12 03:59:43;;;;;;;1.43;0.70;;;23.20;28.70;;;;;;5031789;28;20241;-44
2021/03/12 04:02:09;;;;;;;0.70;0.70;;;23.30;28.70;;;;;;5031098;28;20667;-46
2021/03/12 04:04:35;;;;;;;1.07;0.70;;;23.20;28.60;;;;;;5012584;28;20199;-47
2021/03/12 04:07:01;;;;;;;0.70;0.70;;;23.30;28.70;;;;;;5030818;28;20294;-46
2021/03/12 04:09:27;;;;;;;0.73;0.70;;;23.30;28.60;;;;;;5038743;28;20226;-50
2021/03/12 04:11:53;;;;;;;1.13;1.00;;;23.30;28.60;;;;;;5030679;28;20209;-44
2021/03/12 04:14:19;;;;;;;2.23;0.80;;;23.30;28.60;;;;;;5038789;28;20206;-48
2021/03/12 04:16:45;;;;;;;0.70;0.70;;;23.30;28.50;;;;;;5031941;28;20225;-44
2021/03/12 04:19:11;;;;;;;1.40;0.70;;;23.30;28.60;;;;;;5030480;28;20225;-47
2021/03/12 04:21:37;;;;;;;0.60;0.60;;;23.20;28.60;;;;;;5031047;28;20197;-43
2021/03/12 04:24:03;;;;;;;0.80;0.80;;;23.30;28.70;;;;;;5041718;28;20214;-44
2021/03/12 04:26:29;;;;;;;0.60;0.60;;;23.30;28.70;;;;;;5048351;28;20611;-44
2021/03/12 04:28:55;;;;;;;0.70;0.70;;;23.20;28.60;;;;;;5037991;28;20229;-44
2021/03/12 04:31:21;;;;;;;0.60;0.60;;;23.30;28.70;;;;;;5032368;28;20198;-48
2021/03/12 04:33:47;;;;;;;0.87;0.87;;;23.30;28.80;;;;;;5040658;28;20840;-44
2021/03/12 04:36:13;;;;;;;1.05;1.02;;;23.30;28.70;;;;;;5025454;28;20205;-45
2021/03/12 04:38:39;;;;;;;1.10;0.70;;;23.30;28.80;;;;;;5029814;28;20277;-45
2021/03/12 04:41:05;;;;;;;1.13;0.70;;;23.30;28.80;;;;;;5051209;28;20204;-44
2021/03/12 04:43:31;;;;;;;0.75;0.75;;;23.30;29.50;;;;;;5031865;28;20206;-44
2021/03/12 04:45:57;;;;;;;0.70;0.70;;;23.30;29.60;;;;;;5051149;28;20210;-46
2021/03/12 04:48:23;;;;;;;2.40;0.70;;;23.30;29.30;;;;;;5039409;28;20241;-45
2021/03/12 04:50:49;;;;;;;1.20;0.80;;;23.20;29.00;;;;;;5031248;28;20256;-46
2021/03/12 04:53:15;;;;;;;1.07;0.80;;;23.20;29.00;;;;;;5031917;28;20209;-46
2021/03/12 04:55:41;;;;;;;0.73;0.73;;;23.20;29.00;;;;;;5034629;28;20202;-44
2021/03/12 04:58:07;;;;;;;1.07;0.80;;;23.20;28.90;;;;;;5038590;28;20234;-50
2021/03/12 05:00:32;;;;;;;0.77;0.77;;;23.20;29.40;;;;;;5035202;28;20639;-49
2021/03/12 05:02:58;;;;;;;0.83;0.80;;;23.20;28.90;;;;;;5035694;28;20205;-47
2021/03/12 05:05:24;;;;;;;0.70;0.70;;;23.20;28.80;;;;;;5039303;28;20205;-44
2021/03/12 05:07:50;;;;;;;0.70;0.70;;;23.30;28.90;;;;;;5035244;28;20222;-48
2021/03/12 05:10:16;;;;;;;1.60;0.70;;;23.20;28.90;;;;;;5036033;28;20198;-45
2021/03/12 05:12:42;;;;;;;1.10;1.00;;;23.20;28.90;;;;;;5026638;28;20206;-47
2021/03/12 05:15:08;;;;;;;0.93;0.63;;;23.20;28.90;;;;;;5046543;28;20292;-44
2021/03/12 05:17:34;;;;;;;0.87;0.87;;;23.30;28.90;;;;;;5033330;28;20249;-44
2021/03/12 05:20:00;;;;;;;1.70;0.80;;;23.20;28.90;;;;;;5033072;28;20549;-47
2021/03/12 05:22:26;;;;;;;0.83;0.70;;;23.20;28.90;;;;;;5034347;28;20217;-44
2021/03/12 05:24:52;;;;;;;1.00;0.70;;;23.20;28.90;;;;;;5033900;28;20217;-45
2021/03/12 05:27:18;;;;;;;0.80;0.80;;;23.20;28.90;;;;;;5044077;28;20215;-45
2021/03/12 05:29:44;;;;;;;1.27;0.90;;;23.20;28.90;;;;;;5032994;28;20207;-45
2021/03/12 05:32:10;;;;;;;2.73;0.80;;;23.20;28.90;;;;;;5034376;28;20210;-44
2021/03/12 05:34:36;;;;;;;1.40;0.70;;;23.20;29.00;;;;;;5035608;28;20203;-43
2021/03/12 05:37:02;;;;;;;1.03;0.77;;;23.20;29.00;;;;;;5035327;28;20225;-45
2021/03/12 05:39:28;;;;;;;1.10;0.67;;;23.20;29.00;;;;;;5034685;28;20230;-45
2021/03/12 05:41:54;;;;;;;1.13;0.90;;;23.20;29.00;;;;;;5033358;28;20705;-50
2021/03/12 05:44:20;;;;;;;0.97;0.77;;;23.20;29.00;;;;;;5035318;28;20213;-45
2021/03/12 05:46:46;;;;;;;0.80;0.80;;;23.20;29.00;;;;;;5035982;28;20217;-44
2021/03/12 05:49:12;;;;;;;1.93;1.10;;;23.20;29.00;;;;;;5033935;28;20573;-46
2021/03/12 05:51:38;;;;;;;0.70;0.70;;;23.20;28.90;;;;;;5046813;28;20206;-47
2021/03/12 05:54:04;;;;;;;1.80;1.07;;;23.20;29.00;;;;;;5037308;28;20208;-44
2021/03/12 05:56:30;;;;;;;0.65;0.65;;;23.20;28.90;;;;;;5040325;28;20246;-45
2021/03/12 05:58:56;;;;;;;0.70;0.70;;;23.20;28.80;;;;;;5033070;28;20229;-48
2021/03/12 06:01:22;;;;;;;1.23;0.70;;;23.20;28.90;;;;;;5042588;28;20538;-48
2021/03/12 06:03:48;;;;;;;0.80;0.80;;;23.20;28.90;;;;;;5034537;28;20202;-44
2021/03/12 06:06:14;;;;;;;1.70;0.90;;;23.20;28.90;;;;;;5044156;28;20199;-44
2021/03/12 06:08:39;;;;;;;0.60;0.60;;;23.20;28.90;;;;;;5033172;28;20705;-51
2021/03/12 06:11:05;;;;;;;0.70;0.70;;;23.20;28.90;;;;;;5045061;28;20212;-45
2021/03/12 06:13:31;;;;;;;0.87;0.60;;;23.20;28.90;;;;;;5033517;28;20198;-43
2021/03/12 06:15:57;;;;;;;0.90;0.70;;;23.20;28.90;;;;;;5033208;28;20605;-44
2021/03/12 06:18:25;;;;;;;0.70;0.70;;;23.20;29.00;;;;;;5043372;28;20237;-47
2021/03/12 06:20:51;;;;;;;0.73;0.73;;;23.20;29.00;;;;;;5034326;28;20240;-51
2021/03/12 06:25:48;;;;;;;1.00;0.90;;;23.20;29.50;;;;;;5031691;28;20312;-53
2021/03/12 06:28:14;;;;;;;0.57;0.57;;;23.20;29.00;;;;;;5031076;28;20221;-54
2021/03/12 06:30:40;;;;;;;1.00;0.90;;;23.20;29.10;;;;;;5032297;28;20198;-54
2021/03/12 06:33:06;;;;;;;2.00;0.80;;;23.20;29.10;;;;;;5032831;28;20206;-53
2021/03/12 06:35:32;;;;;;;1.00;0.90;;;23.20;29.10;;;;;;5031569;28;20209;-50
2021/03/12 06:37:58;;;;;;;0.70;0.70;;;23.20;29.00;;;;;;5033671;28;20857;-54
2021/03/12 06:40:24;;;;;;;1.03;0.80;;;23.20;29.00;;;;;;5029100;28;20220;-54
2021/03/12 06:42:50;;;;;;;2.17;0.80;;;23.20;29.00;;;;;;5025855;28;20192;-46
2021/03/12 06:45:16;;;;;;;2.60;1.00;;;23.20;29.20;;;;;;5020179;28;20611;-50
2021/03/12 06:47:42;;;;;;;2.30;1.00;;;23.20;30.00;;;;;;5032492;28;20226;-48
2021/03/12 06:50:08;;;;;;;3.30;1.10;;;23.20;29.80;;;;;;5030859;28;20208;-46
2021/03/12 06:52:34;;;;;;;2.83;1.00;;;23.20;29.70;;;;;;5032487;28;20221;-47
2021/03/12 06:55:00;;;;;;;8.80;1.37;;;23.20;30.00;;;;;;5032478;28;20212;-46
2021/03/12 06:57:26;;;;;;;2.67;1.17;;;23.20;30.20;;;;;;5026284;28;20241;-51
2021/03/12 06:59:52;;;;;;;1.07;0.97;;;21.60;25.30;;;;;;5013814;28;20212;-52
2021/03/12 07:02:18;;;;;;;1.83;1.03;;;16.60;28.70;;;;;;5046832;28;20597;-49
2021/03/12 07:04:44;;;;;;;3.13;1.00;;;16.90;28.90;;;;;;5051473;28;20236;-46
2021/03/12 07:07:10;;;;;;;1.60;0.90;;;19.00;28.50;;;;;;5051944;28;20235;-47
2021/03/12 07:09:36;;;;;;;2.03;1.00;;;20.30;27.20;;;;;;5052129;28;20585;-48
2021/03/12 07:12:02;;;;;;;2.37;1.00;;;21.10;26.70;;;;;;5052157;28;20216;-53
2021/03/12 07:14:28;;;;;;;2.40;1.03;;;21.50;27.00;;;;;;5050862;28;20202;-47
2021/03/12 07:16:54;;;;;;;1.70;1.20;;;21.80;26.90;;;;;;5044387;28;20227;-47
2021/03/12 07:19:20;;;;;;;1.20;0.97;;;22.00;27.00;;;;;;5051706;28;20205;-47
2021/03/12 07:21:46;;;;;;;1.40;1.00;;;22.20;27.10;;;;;;5050625;28;20538;-48
2021/03/12 07:24:12;;;;;;;1.93;0.90;;;22.30;27.10;;;;;;5051869;28;20214;-47
2021/03/12 07:26:38;;;;;;;0.80;0.80;;;22.40;27.30;;;;;;5052283;28;20207;-46
2021/03/12 07:29:03;;;;;;;0.93;0.80;;;22.40;27.30;;;;;;5052111;28;20199;-51
2021/03/12 07:31:29;;;;;;;1.00;0.80;;;22.50;27.40;;;;;;5047224;28;20203;-44
2021/03/12 07:33:55;;;;;;;1.67;1.00;;;22.60;27.50;;;;;;5047657;28;20206;-50
2021/03/12 07:36:21;;;;;;;2.47;1.00;;;22.60;27.70;;;;;;5051824;28;20206;-46
2021/03/12 07:38:47;;;;;;;1.10;1.03;;;22.70;27.80;;;;;;5050693;28;20243;-49
2021/03/12 07:41:13;;;;;;;0.93;0.90;;;22.80;27.90;;;;;;5051747;28;20206;-49
2021/03/12 07:43:39;;;;;;;1.10;1.00;;;22.80;27.90;;;;;;5051186;28;20298;-47
2021/03/12 07:46:05;;;;;;;1.77;0.90;;;22.80;27.90;;;;;;5051143;28;20278;-50
2021/03/12 07:48:31;;;;;;;1.00;0.80;;;22.80;27.90;;;;;;5049966;28;20232;-46
2021/03/12 07:50:57;;;;;;;1.67;0.77;;;22.80;27.90;;;;;;5047827;28;20208;-50
2021/03/12 07:53:23;;;;;;;1.17;0.97;;;22.80;27.90;;;;;;5042598;28;20201;-46
2021/03/12 07:55:50;;;;;;;0.83;0.83;;;22.80;27.90;;;;;;5054512;28;20679;-46
2021/03/12 07:58:16;;;;;;;0.80;0.80;;;22.80;27.90;;;;;;5052742;28;20244;-49
2021/03/12 08:00:42;;;;;;;1.50;0.90;;;22.80;27.90;;;;;;5061127;28;20255;-48
2021/03/12 08:03:08;;;;;;;1.47;0.80;;;22.80;27.90;;;;;;5051041;28;20654;-52
2021/03/12 08:05:34;;;;;;;0.93;0.90;;;22.80;27.90;;;;;;5051198;28;20200;-44
2021/03/12 08:08:01;;;;;;;1.33;0.80;;;22.80;27.90;;;;;;5050317;28;20282;-48
2021/03/12 08:10:27;;;;;;;1.27;0.90;;;22.90;28.00;;;;;;5050778;28;20688;-47
2021/03/12 08:12:53;;;;;;;1.17;0.90;;;22.90;28.00;;;;;;5048365;28;20201;-51
2021/03/12 08:15:19;;;;;;;1.97;0.90;;;22.90;28.10;;;;;;5051308;28;20727;-58
2021/03/12 08:17:45;;;;;;;1.87;1.00;;;22.90;28.20;;;;;;5050773;28;20244;-59
2021/03/12 08:20:11;;;;;;;2.33;0.93;;;22.80;28.20;;;;;;5051024;28;20202;-59
2021/03/12 08:22:41;;;;;;;1.17;0.90;;;22.90;28.20;;;;;;5050591;28;20546;-47
2021/03/12 08:25:07;;;;;;;2.20;1.10;;;22.80;27.50;;;;;;5049124;28;20299;-49
2021/03/12 08:27:33;;;;;;;0.97;0.77;;;22.80;28.50;;;;;;5051200;28;20239;-53
2021/03/12 08:29:59;;;;;;;0.97;0.87;;;22.90;28.50;;;;;;5050542;28;20209;-46
2021/03/12 08:32:25;;;;;;;1.37;0.97;;;22.90;28.00;;;;;;5045456;28;20550;-46
2021/03/12 08:34:51;;;;;;;0.87;0.80;;;23.00;28.00;;;;;;5039623;28;20201;-52
2021/03/12 08:37:17;;;;;;;1.83;1.20;;;23.00;28.00;;;;;;5051422;28;20228;-52
2021/03/12 08:39:45;;;;;;;1.50;0.90;;;23.10;28.20;;;;;;5050828;28;20209;-48
2021/03/12 08:42:11;;;;;;;1.00;0.90;;;23.10;28.10;;;;;;5049752;28;20258;-51
2021/03/12 08:44:37;;;;;;;1.83;1.00;;;23.10;28.10;;;;;;5050164;28;20213;-52
2021/03/12 08:47:03;;;;;;;1.97;0.93;;;23.10;28.30;;;;;;5040723;28;20225;-50
2021/03/12 08:49:29;;;;;;;3.00;1.13;;;23.10;28.10;;;;;;5049721;28;20205;-50
2021/03/12 08:51:55;;;;;;;1.53;1.00;;;23.10;28.10;;;;;;5050617;28;20329;-54
2021/03/12 08:54:21;;;;;;;1.87;1.23;;;23.10;28.10;;;;;;5049681;28;20212;-54
2021/03/12 08:56:47;;;;;;;1.53;1.03;;;23.20;28.20;;;;;;5050505;28;20229;-51
2021/03/12 08:59:12;;;;;;;1.67;0.98;;;23.20;28.20;;;;;;5038087;28;20205;-54
2021/03/12 09:01:38;;;;;;;2.00;1.00;;;23.20;28.20;;;;;;5044366;28;20562;-55
2021/03/12 09:04:04;;;;;;;2.70;1.10;;;23.20;28.20;;;;;;5043832;28;20202;-54
2021/03/12 09:06:30;;;;;;;2.43;1.20;;;23.20;28.30;;;;;;5047005;28;20218;-52
2021/03/12 09:08:56;;;;;;;4.60;1.17;;;23.30;28.90;;;;;;5047281;28;20205;-50
2021/03/12 09:11:22;;;;;;;5.43;1.30;;;23.30;28.20;;;;;;5050417;28;20206;-48
2021/03/12 09:13:49;;;;;;;4.10;1.30;;;23.30;28.60;;;;;;5049857;28;20247;-51
2021/03/12 09:16:15;;;;;;;2.13;1.15;;;23.30;28.60;;;;;;5049673;28;20210;-54
2021/03/12 09:18:41;;;;;;;2.97;1.30;;;23.30;28.30;;;;;;5050731;28;20271;-51
2021/03/12 09:21:06;;;;;;;1.75;1.23;;;23.30;28.20;;;;;;5048821;28;20247;-54
2021/03/12 09:23:32;;;;;;;3.17;1.60;;;23.30;28.30;;;;;;5044927;28;20560;-54
2021/03/12 09:25:58;;;;;;;3.37;1.70;;;23.30;28.80;;;;;;5050556;28;20201;-55
2021/03/12 09:28:24;;;;;;;3.15;1.00;;;23.30;28.50;;;;;;5050897;28;20277;-56
2021/03/12 09:30:50;;;;;;;3.40;1.25;;;23.30;28.40;;;;;;5050346;28;20205;-51
2021/03/12 09:33:16;;;;;;;3.03;1.88;;;23.30;29.20;;;;;;5040620;28;20208;-54
2021/03/12 09:35:42;;;;;;;3.40;1.20;;;23.30;29.60;;;;;;5049439;28;20216;-53
2021/03/12 09:38:08;;;;;;;2.38;1.20;;;23.30;28.20;;;;;;5049432;28;20247;-52
2021/03/12 09:40:34;;;;;;;2.95;1.30;;;23.20;27.90;;;;;;5051067;28;20255;-54
2021/03/12 09:43:00;;;;;;;2.35;1.13;;;23.10;27.30;;;;;;5052527;28;20554;-53
2021/03/12 09:45:26;;;;;;;2.93;1.40;;;23.10;27.30;;;;;;5055158;28;20212;-54
2021/03/12 09:47:53;;;;;;;2.87;1.10;;;23.00;26.90;;;;;;5054878;28;20236;-53
2021/03/12 09:50:19;;;;;;;3.37;1.50;;;23.00;26.80;;;;;;5054851;28;20294;-48
2021/03/12 09:52:45;;;;;;;2.20;1.40;;;23.00;26.60;;;;;;5053962;28;20293;-54
2021/03/12 09:55:11;;;;;;;4.90;1.20;;;23.00;26.40;;;;;;5037383;28;20226;-55
2021/03/12 09:57:37;;;;;;;2.90;1.20;;;23.00;26.20;;;;;;5054404;28;20236;-53
2021/03/12 10:00:03;;;;;;;2.27;1.10;;;22.90;26.00;;;;;;5054882;28;20649;-51
2021/03/12 10:02:29;;;;;;;2.30;1.30;;;22.90;25.90;;;;;;5054079;28;20251;-53
2021/03/12 10:04:55;;;;;;;2.03;1.33;;;23.00;25.80;;;;;;5054455;28;20198;-50
2021/03/12 10:07:21;;;;;;;2.60;1.10;;;23.00;25.70;;;;;;5054146;28;20718;-53
2021/03/12 10:09:47;;;;;;;2.63;1.30;;;22.90;25.50;;;;;;5052656;28;20201;-53
2021/03/12 10:12:13;;;;;;;1.30;1.00;;;22.90;25.40;;;;;;5051887;28;20214;-54
2021/03/12 10:14:39;;;;;;;3.38;1.27;;;22.90;25.30;;;;;;5054169;28;20202;-51
2021/03/12 10:17:05;;;;;;;3.03;1.45;;;22.90;25.30;;;;;;5054192;28;20237;-53
2021/03/12 10:19:31;;;;;;;4.90;1.50;;;22.90;25.60;;;;;;5053980;28;20202;-53
2021/03/12 10:21:57;;;;;;;1.90;1.33;;;22.90;25.00;;;;;;5050561;28;20213;-52
2021/03/12 10:24:23;;;;;;;1.70;1.00;;;22.90;25.10;;;;;;5060059;28;20209;-49
2021/03/12 10:26:50;;;;;;;5.20;1.27;;;22.90;24.90;;;;;;5056090;28;20226;-51
2021/03/12 10:29:16;;;;;;;2.03;1.10;;;22.90;24.70;;;;;;5053826;28;20219;-53
2021/03/12 10:31:42;;;;;;;3.57;1.50;;;22.90;24.80;;;;;;5048815;28;20205;-55
2021/03/12 10:34:08;;;;;;;3.83;1.20;;;22.90;24.70;;;;;;5046963;28;20212;-52
2021/03/12 10:36:34;;;;;;;2.70;1.20;;;23.00;25.00;;;;;;5052073;28;20917;-55
2021/03/12 10:39:00;;;;;;;1.97;1.00;;;23.00;24.90;;;;;;5052938;28;20284;-55
2021/03/12 10:41:26;;;;;;;2.87;1.30;;;22.90;24.70;;;;;;5052916;28;20216;-53
2021/03/12 10:43:52;;;;;;;2.27;1.20;;;22.90;24.60;;;;;;5051890;28;20213;-53
2021/03/12 10:46:18;;;;;;;4.23;1.53;;;22.90;24.80;;;;;;5046920;28;20317;-50
2021/03/12 10:48:44;;;;;;;3.63;1.10;;;22.90;24.60;;;;;;5049330;28;20650;-51
2021/03/12 10:51:10;;;;;;;3.78;1.40;;;22.90;24.60;;;;;;5051987;28;20202;-52
2021/03/12 10:53:36;;;;;;;5.93;1.20;;;22.90;24.60;;;;;;5051784;28;20209;-54
2021/03/12 10:56:02;;;;;;;2.57;1.07;;;22.90;24.50;;;;;;5050902;28;20604;-58
2021/03/12 10:58:28;;;;;;;3.03;1.30;;;23.00;24.50;;;;;;5052638;28;20229;-54
2021/03/12 11:00:54;;;;;;;5.63;1.67;;;22.90;24.30;;;;;;5047879;28;20620;-59
2021/03/12 11:03:21;;;;;;;1.60;0.97;;;22.90;25.00;;;;;;5049843;28;20209;-54
2021/03/12 11:05:47;;;;;;;3.60;1.10;;;23.00;25.40;;;;;;5052932;28;20225;-48
2021/03/12 11:08:13;;;;;;;3.73;1.33;;;23.00;25.30;;;;;;5052395;28;20612;-54
2021/03/12 11:10:39;;;;;;;4.17;0.97;;;22.90;25.30;;;;;;5050613;28;20221;-50
2021/03/12 11:13:04;;;;;;;1.63;1.10;;;22.90;25.10;;;;;;5046639;28;20214;-54
2021/03/12 11:15:30;;;;;;;1.90;1.20;;;22.90;25.10;;;;;;5052371;28;20696;-51
2021/03/12 11:17:56;;;;;;;1.67;1.27;;;22.90;25.30;;;;;;5052354;28;20230;-50
2021/03/12 11:20:22;;;;;;;2.00;1.20;;;22.90;25.00;;;;;;5036099;28;20236;-45
2021/03/12 11:22:48;;;;;;;3.10;1.10;;;22.90;25.20;;;;;;5050285;28;20542;-48
2021/03/12 11:25:16;;;;;;;3.00;1.07;;;22.90;25.20;;;;;;5050538;28;20217;-49
2021/03/12 11:27:42;;;;;;;1.80;1.13;;;22.90;24.90;;;;;;5050911;28;20666;-51
2021/03/12 11:30:07;;;;;;;1.60;1.03;;;22.90;25.00;;;;;;5052347;28;20259;-52
2021/03/12 11:32:33;;;;;;;2.63;1.07;;;22.90;24.90;;;;;;5049912;28;20259;-48
2021/03/12 11:34:59;;;;;;;2.00;1.20;;;22.90;24.90;;;;;;5049207;28;20209;-47
2021/03/12 11:37:25;;;;;;;7.00;1.47;;;22.90;24.90;;;;;;5051446;28;20257;-47
2021/03/12 11:39:51;;;;;;;2.40;1.40;;;22.90;24.80;;;;;;5050997;28;20201;-48
2021/03/12 11:42:17;;;;;;;2.90;1.43;;;22.90;24.90;;;;;;5045272;28;20228;-47
2021/03/12 11:44:43;;;;;;;3.13;1.53;;;22.80;24.90;;;;;;5048558;28;20711;-48
2021/03/12 11:47:09;;;;;;;1.40;1.13;;;22.80;24.80;;;;;;5042758;28;20221;-47
2021/03/12 11:49:35;;;;;;;1.17;0.97;;;22.80;25.00;;;;;;5041395;28;20249;-47
2021/03/12 11:52:01;;;;;;;2.47;1.10;;;22.90;25.20;;;;;;5039034;28;20654;-48
2021/03/12 11:54:28;;;;;;;2.43;1.17;;;22.90;25.50;;;;;;5046756;28;20197;-44
2021/03/12 11:56:54;;;;;;;3.20;1.17;;;23.00;25.70;;;;;;5050499;28;20272;-44
2021/03/12 11:59:20;;;;;;;1.83;0.90;;;22.90;25.10;;;;;;5049535;28;20654;-46
2021/03/12 12:01:46;;;;;;;3.43;1.23;;;22.90;24.90;;;;;;5050691;28;20197;-46
2021/03/12 12:04:12;;;;;;;1.93;1.20;;;22.90;24.90;;;;;;5050670;28;20213;-48
2021/03/12 12:06:38;;;;;;;2.50;1.10;;;22.90;25.00;;;;;;5049735;28;20591;-50
2021/03/12 12:09:04;;;;;;;1.70;1.10;;;22.90;25.00;;;;;;5050372;28;20210;-48
2021/03/12 12:11:30;;;;;;;2.70;1.00;;;22.90;25.00;;;;;;5047500;28;20273;-47
2021/03/12 12:13:56;;;;;;;3.03;1.23;;;22.90;24.90;;;;;;5066439;28;20305;-49
2021/03/12 12:16:22;;;;;;;2.17;0.90;;;22.90;24.90;;;;;;5068925;28;20711;-50
2021/03/12 12:18:48;;;;;;;2.50;0.90;;;22.90;25.00;;;;;;5038366;28;20234;-48
2021/03/12 12:21:14;;;;;;;1.50;1.00;;;22.90;25.00;;;;;;5043546;28;20211;-45
2021/03/12 12:23:40;;;;;;;1.40;0.90;;;23.10;25.80;;;;;;5049785;28;20677;-46
2021/03/12 12:26:06;;;;;;;2.25;0.90;;;23.30;26.20;;;;;;5051064;28;20233;-45
2021/03/12 12:28:32;;;;;;;3.83;1.83;;;23.40;26.30;;;;;;5050968;28;20205;-46
2021/03/12 12:30:58;;;;;;;6.30;2.60;;;23.50;27.00;;;;;;5048770;28;20598;-49
2021/03/12 12:33:24;;;;;;;5.30;3.03;;;23.50;28.00;;;;;;5049151;28;20194;-45
2021/03/12 12:35:51;;;;;;;7.60;3.10;;;23.50;28.50;;;;;;5051131;28;20231;-46
2021/03/12 12:38:17;;;;;;;3.80;2.35;;;23.50;29.40;;;;;;5049374;28;20221;-46
2021/03/12 12:40:43;;;;;;;4.50;2.47;;;23.60;29.70;;;;;;5049489;28;20204;-45
2021/03/12 12:43:09;;;;;;;7.43;3.30;;;23.60;29.30;;;;;;5050020;28;20689;-45